createdAt,value
2023-02-27T00:00:30.122Z,56.2
2023-02-27T00:01:34.372Z,56.8
2023-02-27T00:02:38.827Z,56.9
2023-02-27T00:03:43.212Z,56.36
2023-02-27T00:04:47.467Z,56.88
2023-02-27T00:05:51.722Z,57.09
2023-02-27T00:06:55.995Z,57.08
2023-02-27T00:08:00.237Z,57
2023-02-27T00:09:04.698Z,56.93
2023-02-27T00:10:09.007Z,57.19
2023-02-27T00:11:13.300Z,56.56
2023-02-27T00:12:17.574Z,57.09
2023-02-27T00:13:21.831Z,57.19
2023-02-27T00:14:26.086Z,57.13
2023-02-27T00:15:30.586Z,57.2
2023-02-27T00:16:34.864Z,57.42
2023-02-27T00:17:39.151Z,57.04
2023-02-27T00:18:43.409Z,57.3
2023-02-27T00:19:47.674Z,57.2
2023-02-27T00:20:51.938Z,57.21
2023-02-27T00:21:56.197Z,57.32
2023-02-27T00:23:00.508Z,57.36
2023-02-27T00:24:04.804Z,57.24
2023-02-27T00:25:09.042Z,57.09
2023-02-27T00:26:13.306Z,57.31
2023-02-27T00:27:17.557Z,57.2
2023-02-27T00:28:21.843Z,57.43
2023-02-27T00:29:26.076Z,57.49
2023-02-27T00:30:30.493Z,57.22
2023-02-27T00:31:34.959Z,57.47
2023-02-27T00:32:39.372Z,56.85
2023-02-27T00:33:43.676Z,56.91
2023-02-27T00:34:47.962Z,57.7
2023-02-27T00:35:52.195Z,57.6
2023-02-27T00:36:56.444Z,57.84
2023-02-27T00:38:00.705Z,57.99
2023-02-27T00:39:05.001Z,57.77
2023-02-27T00:40:09.251Z,57.08
2023-02-27T00:41:13.546Z,57.19
2023-02-27T00:42:17.790Z,57.56
2023-02-27T00:43:22.063Z,58.02
2023-02-27T00:44:26.383Z,57.68
2023-02-27T00:45:30.649Z,57
2023-02-27T00:46:35.026Z,57.58
2023-02-27T00:47:39.494Z,57.64
2023-02-27T00:48:43.798Z,57.46
2023-02-27T00:49:48.088Z,57.33
2023-02-27T00:50:52.412Z,57.6
2023-02-27T00:51:56.643Z,57.13
2023-02-27T00:53:00.934Z,57.86
2023-02-27T00:54:05.195Z,57.04
2023-02-27T00:55:09.460Z,57.7
2023-02-27T00:56:13.759Z,57.52
2023-02-27T00:57:18.236Z,57.19
2023-02-27T00:58:22.532Z,58.21
2023-02-27T00:59:26.794Z,57.54
2023-02-27T01:00:31.251Z,58.16
2023-02-27T01:01:35.505Z,58.32
2023-02-27T01:02:39.943Z,58.5
2023-02-27T01:03:44.231Z,58.75
2023-02-27T01:04:48.500Z,57.79
2023-02-27T01:05:52.744Z,58.68
2023-02-27T01:06:57.315Z,58.65
2023-02-27T01:08:01.627Z,57.94
2023-02-27T01:09:05.883Z,58.03
2023-02-27T01:10:10.157Z,58.07
2023-02-27T01:11:14.478Z,58.16
2023-02-27T01:12:18.834Z,57.55
2023-02-27T01:13:23.123Z,58.58
2023-02-27T01:14:27.365Z,58.39
2023-02-27T01:15:31.627Z,58.51
2023-02-27T01:16:36.078Z,58.39
2023-02-27T01:17:40.441Z,58.33
2023-02-27T01:18:44.698Z,58.8
2023-02-27T01:19:48.985Z,58.67
2023-02-27T01:20:53.253Z,59
2023-02-27T01:21:57.516Z,59.08
2023-02-27T01:23:01.780Z,58.36
2023-02-27T01:24:06.031Z,59.18
2023-02-27T01:25:10.287Z,58.97
2023-02-27T01:26:14.537Z,58.33
2023-02-27T01:27:18.801Z,59.17
2023-02-27T01:28:23.071Z,59.39
2023-02-27T01:29:27.295Z,59.49
2023-02-27T01:30:31.725Z,58.9
2023-02-27T01:31:36.246Z,57.97
2023-02-27T01:32:40.955Z,58.43
2023-02-27T01:33:45.218Z,58.98
2023-02-27T01:34:49.524Z,58.02
2023-02-27T01:35:53.818Z,58.76
2023-02-27T01:36:58.103Z,58.26
2023-02-27T01:38:02.370Z,58.4
2023-02-27T01:39:06.656Z,58.55
2023-02-27T01:40:10.914Z,59.14
2023-02-27T01:41:15.181Z,58.53
2023-02-27T01:42:19.452Z,58.08
2023-02-27T01:43:23.721Z,58.25
2023-02-27T01:44:28.037Z,57.77
2023-02-27T01:45:32.419Z,57.95
2023-02-27T01:46:36.690Z,58.79
2023-02-27T01:47:40.999Z,58.46
2023-02-27T01:48:45.302Z,58.12
2023-02-27T01:49:49.549Z,58.37
2023-02-27T01:50:53.783Z,57.96
2023-02-27T01:51:58.068Z,57.85
2023-02-27T01:53:02.368Z,58.08
2023-02-27T01:54:06.653Z,58.45
2023-02-27T01:55:10.906Z,58.55
2023-02-27T01:56:15.171Z,58.8
2023-02-27T01:57:19.562Z,59.46
2023-02-27T01:58:23.828Z,58.31
2023-02-27T01:59:28.083Z,58.97
2023-02-27T02:00:32.399Z,59.31
2023-02-27T02:01:36.994Z,59.59
2023-02-27T02:02:41.410Z,59.37
2023-02-27T02:03:45.733Z,59.47
2023-02-27T02:04:49.972Z,59.33
2023-02-27T02:05:54.228Z,58.73
2023-02-27T02:06:58.520Z,59.2
2023-02-27T02:08:02.807Z,58.22
2023-02-27T02:09:07.107Z,58.15
2023-02-27T02:10:11.376Z,59.19
2023-02-27T02:11:15.681Z,58.48
2023-02-27T02:12:19.972Z,59.07
2023-02-27T02:13:24.258Z,59.67
2023-02-27T02:14:28.565Z,59.87
2023-02-27T02:15:32.826Z,59.74
2023-02-27T02:16:37.293Z,59.82
2023-02-27T02:17:41.583Z,58.83
2023-02-27T02:18:45.836Z,59.44
2023-02-27T02:19:50.119Z,59.51
2023-02-27T02:20:54.379Z,59.75
2023-02-27T02:21:58.663Z,59.24
2023-02-27T02:23:02.980Z,58.21
2023-02-27T02:24:07.250Z,58.87
2023-02-27T02:25:11.509Z,58.39
2023-02-27T02:26:15.782Z,59.17
2023-02-27T02:27:20.142Z,59.67
2023-02-27T02:28:24.393Z,59.41
2023-02-27T02:29:28.657Z,58.9
2023-02-27T02:30:33.370Z,59.81
2023-02-27T02:31:38.072Z,58.83
2023-02-27T02:32:42.347Z,59.28
2023-02-27T02:33:46.754Z,59.72
2023-02-27T02:34:51.020Z,59.83
2023-02-27T02:35:55.412Z,59.91
2023-02-27T02:36:59.719Z,59.97
2023-02-27T02:38:04.252Z,58.97
2023-02-27T02:39:08.532Z,58.66
2023-02-27T02:40:12.855Z,58.1
2023-02-27T02:41:17.112Z,58.69
2023-02-27T02:42:22.409Z,58.66
2023-02-27T02:43:26.711Z,59.09
2023-02-27T02:44:30.976Z,58.74
2023-02-27T02:45:35.208Z,59.36
2023-02-27T02:46:39.500Z,58.61
2023-02-27T02:47:43.772Z,58.86
2023-02-27T02:48:48.051Z,58.68
2023-02-27T02:49:52.329Z,59.57
2023-02-27T02:50:56.613Z,58.42
2023-02-27T02:52:01.004Z,58.21
2023-02-27T02:53:05.264Z,59.55
2023-02-27T02:54:09.617Z,58.41
2023-02-27T02:55:13.881Z,58.79
2023-02-27T02:56:18.131Z,58.28
2023-02-27T02:57:22.447Z,59.2
2023-02-27T02:58:26.686Z,58.78
2023-02-27T02:59:30.986Z,58.46
2023-02-27T03:00:35.240Z,59.44
2023-02-27T03:01:39.612Z,58.37
2023-02-27T03:02:43.904Z,58.95
2023-02-27T03:03:48.197Z,58.58
2023-02-27T03:04:52.490Z,58.29
2023-02-27T03:05:56.792Z,58.05
2023-02-27T03:07:01.073Z,59.35
2023-02-27T03:08:05.407Z,59.31
2023-02-27T03:09:09.721Z,57.95
2023-02-27T03:10:13.991Z,58.12
2023-02-27T03:11:18.275Z,58.13
2023-02-27T03:12:22.588Z,59.02
2023-02-27T03:13:26.870Z,58.06
2023-02-27T03:14:31.152Z,58.94
2023-02-27T03:15:35.572Z,58.26
2023-02-27T03:16:39.850Z,58.29
2023-02-27T03:17:44.366Z,58.12
2023-02-27T03:18:48.604Z,58.66
2023-02-27T03:19:52.849Z,58.79
2023-02-27T03:20:57.199Z,59.17
2023-02-27T03:22:01.539Z,59.17
2023-02-27T03:23:05.809Z,58.48
2023-02-27T03:24:10.109Z,58.34
2023-02-27T03:25:14.375Z,58.03
2023-02-27T03:26:18.644Z,59.18
2023-02-27T03:27:22.980Z,58.72
2023-02-27T03:28:27.264Z,59.3
2023-02-27T03:29:31.512Z,58.61
2023-02-27T03:30:35.931Z,58.28
2023-02-27T03:31:40.461Z,58.26
2023-02-27T03:32:44.738Z,59.21
2023-02-27T03:33:49.013Z,58.83
2023-02-27T03:34:53.313Z,59.22
2023-02-27T03:35:57.685Z,58.04
2023-02-27T03:37:01.955Z,59.24
2023-02-27T03:38:06.206Z,58.91
2023-02-27T03:39:10.464Z,58.66
2023-02-27T03:40:14.793Z,58.24
2023-02-27T03:41:19.048Z,59.18
2023-02-27T03:42:23.412Z,58.6
2023-02-27T03:43:27.706Z,58.21
2023-02-27T03:44:31.983Z,59.06
2023-02-27T03:45:36.225Z,58.82
2023-02-27T03:46:40.716Z,59.31
2023-02-27T03:47:44.989Z,58.21
2023-02-27T03:48:49.232Z,58.74
2023-02-27T03:49:53.540Z,58.66
2023-02-27T03:50:57.811Z,58.39
2023-02-27T03:52:02.073Z,58.46
2023-02-27T03:53:06.330Z,58.89
2023-02-27T03:54:10.608Z,58.66
2023-02-27T03:55:14.898Z,58.33
2023-02-27T03:56:19.154Z,58.6
2023-02-27T03:57:23.413Z,58.19
2023-02-27T03:58:27.658Z,58.48
2023-02-27T03:59:31.930Z,58.29
2023-02-27T04:00:36.217Z,58.7
2023-02-27T04:01:40.713Z,58.66
2023-02-27T04:02:45.162Z,58.27
2023-02-27T04:03:49.474Z,58.43
2023-02-27T04:04:53.745Z,58.64
2023-02-27T04:05:58.037Z,59
2023-02-27T04:07:02.347Z,58.22
2023-02-27T04:08:06.641Z,58.58
2023-02-27T04:09:10.945Z,58.92
2023-02-27T04:10:15.216Z,58.25
2023-02-27T04:11:19.655Z,59.06
2023-02-27T04:12:24.020Z,59.2
2023-02-27T04:13:28.286Z,59.53
2023-02-27T04:14:32.553Z,59.09
2023-02-27T04:15:36.837Z,59.24
2023-02-27T04:16:41.090Z,59.13
2023-02-27T04:17:45.360Z,58.85
2023-02-27T04:18:49.966Z,58.81
2023-02-27T04:19:54.239Z,59.41
2023-02-27T04:20:58.476Z,59.46
2023-02-27T04:22:02.738Z,59.9
2023-02-27T04:23:07.014Z,58.65
2023-02-27T04:24:11.269Z,58.6
2023-02-27T04:25:15.501Z,59.29
2023-02-27T04:26:19.787Z,59.79
2023-02-27T04:27:24.048Z,59.78
2023-02-27T04:28:28.316Z,58.42
2023-02-27T04:29:32.584Z,58.84
2023-02-27T04:30:36.834Z,59.28
2023-02-27T04:31:41.470Z,58.28
2023-02-27T04:32:46.080Z,59.02
2023-02-27T04:33:50.338Z,58.49
2023-02-27T04:34:54.600Z,58.32
2023-02-27T04:35:58.913Z,58.12
2023-02-27T04:37:03.261Z,59.07
2023-02-27T04:38:07.558Z,59.4
2023-02-27T04:39:11.822Z,59.46
2023-02-27T04:40:16.093Z,59.43
2023-02-27T04:41:20.356Z,59.54
2023-02-27T04:42:24.602Z,59.64
2023-02-27T04:43:28.902Z,59.29
2023-02-27T04:44:33.268Z,59.66
2023-02-27T04:45:37.705Z,59.64
2023-02-27T04:46:41.990Z,59.66
2023-02-27T04:47:46.285Z,59.61
2023-02-27T04:48:50.584Z,59.57
2023-02-27T04:49:57.146Z,59.8
2023-02-27T04:51:01.422Z,58.54
2023-02-27T04:52:05.681Z,58.76
2023-02-27T04:53:09.943Z,59.36
2023-02-27T04:54:14.302Z,59.69
2023-02-27T04:55:18.568Z,59.75
2023-02-27T04:56:22.804Z,59.4
2023-02-27T04:57:27.067Z,58.98
2023-02-27T04:58:31.369Z,58.17
2023-02-27T04:59:35.793Z,57.96
2023-02-27T05:00:40.080Z,57.34
2023-02-27T05:01:44.410Z,57.11
2023-02-27T05:02:48.943Z,57.01
2023-02-27T05:03:53.248Z,56.89
2023-02-27T05:04:57.513Z,55.24
2023-02-27T05:06:01.764Z,55.49
2023-02-27T05:07:06.037Z,54.9
2023-02-27T05:08:10.304Z,54.69
2023-02-27T05:09:14.580Z,54.46
2023-02-27T05:10:18.860Z,54.2
2023-02-27T05:11:23.220Z,53.72
2023-02-27T05:12:27.586Z,53.48
2023-02-27T05:13:31.832Z,53.19
2023-02-27T05:14:36.094Z,53.49
2023-02-27T05:15:40.469Z,53.11
2023-02-27T05:16:44.927Z,52.71
2023-02-27T05:17:49.395Z,52.38
2023-02-27T05:18:54.428Z,52.11
2023-02-27T05:19:58.692Z,51.79
2023-02-27T05:21:02.970Z,51.63
2023-02-27T05:22:07.261Z,51.3
2023-02-27T05:23:11.520Z,51.14
2023-02-27T05:24:15.828Z,51.02
2023-02-27T05:25:20.072Z,50.9
2023-02-27T05:26:24.336Z,50.79
2023-02-27T05:27:28.613Z,50.8
2023-02-27T05:28:32.871Z,50.75
2023-02-27T05:29:37.126Z,50.65
2023-02-27T05:30:41.399Z,50.65
2023-02-27T05:31:46.227Z,50.59
2023-02-27T05:32:50.557Z,50.55
2023-02-27T05:33:54.804Z,50.54
2023-02-27T05:34:59.148Z,50.64
2023-02-27T05:36:03.623Z,50.68
2023-02-27T05:37:07.889Z,50.55
2023-02-27T05:38:12.162Z,50.53
2023-02-27T05:39:16.444Z,50.6
2023-02-27T05:40:20.733Z,50.49
2023-02-27T05:41:25.448Z,50.5
2023-02-27T05:42:29.847Z,50.55
2023-02-27T05:43:34.170Z,50.44
2023-02-27T05:44:38.456Z,50.45
2023-02-27T05:45:42.945Z,50.57
2023-02-27T05:46:47.199Z,50.53
2023-02-27T05:47:51.459Z,50.51
2023-02-27T05:48:55.762Z,50.53
2023-02-27T05:50:00.125Z,50.43
2023-02-27T05:51:04.376Z,50.48
2023-02-27T05:52:08.622Z,50.35
2023-02-27T05:53:12.870Z,50.45
2023-02-27T05:54:17.159Z,50.63
2023-02-27T05:55:21.503Z,50.62
2023-02-27T05:56:26.341Z,50.51
2023-02-27T05:57:30.757Z,50.67
2023-02-27T05:58:38.052Z,50.7
2023-02-27T05:59:42.340Z,50.79
2023-02-27T06:00:46.593Z,50.73
2023-02-27T06:01:50.916Z,50.98
2023-02-27T06:02:55.221Z,51.01
2023-02-27T06:03:59.502Z,51.2
2023-02-27T06:05:03.776Z,51.32
2023-02-27T06:06:08.002Z,51.35
2023-02-27T06:07:12.292Z,51.34
2023-02-27T06:08:16.573Z,51.4
2023-02-27T06:09:20.836Z,51.36
2023-02-27T06:10:25.162Z,51.2
2023-02-27T06:11:29.407Z,51.25
2023-02-27T06:12:33.655Z,51.39
2023-02-27T06:13:39.113Z,51.08
2023-02-27T06:14:45.127Z,50.95
2023-02-27T06:15:49.481Z,50.69
2023-02-27T06:16:54.015Z,50.98
2023-02-27T06:17:58.310Z,50.76
2023-02-27T06:19:05.549Z,51.03
2023-02-27T06:20:09.821Z,50.99
2023-02-27T06:21:14.052Z,51.24
2023-02-27T06:22:18.338Z,50.87
2023-02-27T06:23:22.595Z,51.17
2023-02-27T06:24:26.897Z,51.33
2023-02-27T06:25:31.147Z,51.17
2023-02-27T06:26:35.675Z,51.25
2023-02-27T06:27:39.905Z,51.28
2023-02-27T06:28:44.184Z,51.29
2023-02-27T06:29:48.413Z,51.26
2023-02-27T06:30:52.842Z,51.35
2023-02-27T06:31:59.726Z,51.4
2023-02-27T06:33:04.064Z,51.47
2023-02-27T06:34:08.305Z,51.41
2023-02-27T06:35:12.576Z,51.42
2023-02-27T06:36:17.015Z,51.44
2023-02-27T06:37:21.304Z,51.54
2023-02-27T06:38:25.609Z,51.45
2023-02-27T06:39:29.918Z,51.45
2023-02-27T06:40:34.146Z,51.36
2023-02-27T06:41:38.417Z,51.31
2023-02-27T06:42:42.671Z,51.1
2023-02-27T06:43:47.137Z,50.9
2023-02-27T06:44:51.395Z,50.84
2023-02-27T06:45:55.926Z,50.68
2023-02-27T06:47:02.473Z,50.99
2023-02-27T06:48:06.762Z,50.87
2023-02-27T06:49:11.040Z,50.65
2023-02-27T06:50:15.305Z,50.79
2023-02-27T06:51:19.581Z,50.67
2023-02-27T06:52:23.862Z,50.52
2023-02-27T06:53:28.109Z,50.57
2023-02-27T06:54:32.370Z,50.57
2023-02-27T06:55:36.631Z,50.39
2023-02-27T06:56:40.917Z,50.35
2023-02-27T06:57:45.204Z,50.31
2023-02-27T06:58:49.452Z,50.55
2023-02-27T06:59:53.907Z,50.53
2023-02-27T07:00:58.143Z,50.45
2023-02-27T07:02:02.421Z,50.57
2023-02-27T07:03:06.674Z,50.52
2023-02-27T07:04:10.982Z,50.5
2023-02-27T07:05:15.354Z,50.67
2023-02-27T07:06:19.939Z,50.51
2023-02-27T07:07:39.728Z,50.44
2023-02-27T07:09:07.788Z,50.55
2023-02-27T07:10:12.106Z,50.62
2023-02-27T07:11:16.360Z,50.51
2023-02-27T07:12:20.869Z,50.53
2023-02-27T07:13:25.143Z,50.44
2023-02-27T07:14:29.432Z,50.47
2023-02-27T07:15:34.000Z,50.56
2023-02-27T07:16:38.406Z,50.45
2023-02-27T07:17:42.694Z,50.32
2023-02-27T07:18:46.959Z,50.4
2023-02-27T07:19:51.264Z,50.48
2023-02-27T07:20:55.521Z,50.43
2023-02-27T07:21:59.873Z,50.43
2023-02-27T07:23:04.136Z,50.46
2023-02-27T07:24:08.386Z,50.38
2023-02-27T07:25:12.671Z,50.43
2023-02-27T07:26:16.945Z,50.46
2023-02-27T07:27:21.222Z,50.48
2023-02-27T07:28:25.628Z,50.48
2023-02-27T07:29:29.923Z,50.5
2023-02-27T07:30:34.196Z,50.48
2023-02-27T07:31:38.737Z,50.45
2023-02-27T07:32:43.048Z,50.48
2023-02-27T07:33:47.314Z,50.51
2023-02-27T07:34:51.562Z,50.46
2023-02-27T07:35:56.011Z,50.49
2023-02-27T07:37:00.332Z,50.49
2023-02-27T07:38:04.598Z,50.35
2023-02-27T07:39:08.888Z,50.51
2023-02-27T07:40:13.163Z,50.51
2023-02-27T07:41:32.305Z,50.48
2023-02-27T07:42:36.603Z,50.5
2023-02-27T07:43:40.887Z,50.42
2023-02-27T07:44:45.151Z,50.61
2023-02-27T07:45:52.430Z,50.41
2023-02-27T07:46:56.833Z,50.52
2023-02-27T07:48:01.126Z,50.7
2023-02-27T07:49:05.451Z,50.22
2023-02-27T07:50:09.993Z,50.04
2023-02-27T07:51:14.242Z,50.03
2023-02-27T07:52:18.511Z,49.86
2023-02-27T07:53:23.056Z,49.67
2023-02-27T07:54:27.350Z,49.42
2023-02-27T07:55:31.614Z,49.29
2023-02-27T07:56:35.885Z,49.02
2023-02-27T07:57:40.195Z,48.82
2023-02-27T07:58:44.446Z,48.81
2023-02-27T07:59:48.730Z,48.69
2023-02-27T08:00:53.057Z,48.73
2023-02-27T08:01:57.323Z,48.56
2023-02-27T08:03:01.867Z,48.68
2023-02-27T08:04:06.193Z,48.75
2023-02-27T08:05:10.448Z,48.67
2023-02-27T08:06:14.751Z,48.63
2023-02-27T08:07:19.009Z,48.8
2023-02-27T08:08:23.287Z,48.7
2023-02-27T08:09:27.547Z,48.64
2023-02-27T08:10:31.812Z,48.87
2023-02-27T08:11:36.075Z,48.83
2023-02-27T08:12:40.402Z,48.93
2023-02-27T08:14:03.429Z,49.04
2023-02-27T08:15:07.777Z,49.14
2023-02-27T08:16:12.216Z,49.09
2023-02-27T08:17:16.588Z,49.18
2023-02-27T08:18:20.840Z,49.15
2023-02-27T08:19:25.105Z,49.28
2023-02-27T08:20:29.369Z,49.24
2023-02-27T08:21:33.643Z,49.28
2023-02-27T08:22:37.880Z,49.36
2023-02-27T08:23:44.511Z,49.52
2023-02-27T08:24:48.831Z,49.54
2023-02-27T08:25:53.127Z,49.68
2023-02-27T08:26:57.418Z,49.85
2023-02-27T08:28:01.728Z,49.8
2023-02-27T08:29:06.037Z,49.87
2023-02-27T08:30:10.654Z,50.11
2023-02-27T08:31:15.422Z,49.99
2023-02-27T08:32:20.040Z,50.03
2023-02-27T08:33:24.331Z,50.03
2023-02-27T08:34:28.619Z,49.91
2023-02-27T08:35:33.369Z,49.92
2023-02-27T08:36:37.728Z,49.83
2023-02-27T08:37:42.037Z,49.83
2023-02-27T08:38:46.305Z,49.83
2023-02-27T08:39:50.592Z,49.85
2023-02-27T08:40:54.867Z,49.84
2023-02-27T08:41:59.145Z,49.91
2023-02-27T08:43:03.401Z,49.93
2023-02-27T08:44:07.722Z,49.96
2023-02-27T08:45:11.989Z,50.05
2023-02-27T08:46:16.442Z,49.98
2023-02-27T08:47:20.755Z,50.03
2023-02-27T08:48:25.043Z,49.91
2023-02-27T08:49:29.301Z,49.99
2023-02-27T08:50:33.648Z,50.11
2023-02-27T08:51:37.978Z,50.09
2023-02-27T08:52:42.259Z,50.14
2023-02-27T08:53:46.716Z,50.19
2023-02-27T08:54:50.998Z,50.09
2023-02-27T08:55:55.277Z,50.35
2023-02-27T08:56:59.558Z,50.17
2023-02-27T08:58:03.848Z,50.39
2023-02-27T08:59:08.174Z,50.29
2023-02-27T09:00:12.664Z,50.32
2023-02-27T09:01:17.144Z,50.31
2023-02-27T09:02:21.613Z,50.41
2023-02-27T09:03:25.885Z,50.29
2023-02-27T09:04:30.148Z,50.37
2023-02-27T09:05:34.406Z,50.41
2023-02-27T09:06:38.722Z,50.37
2023-02-27T09:07:43.001Z,50.39
2023-02-27T09:08:47.368Z,50.39
2023-02-27T09:09:52.160Z,50.37
2023-02-27T09:10:56.466Z,50.53
2023-02-27T09:12:00.740Z,50.42
2023-02-27T09:13:05.048Z,50.47
2023-02-27T09:14:09.335Z,50.41
2023-02-27T09:15:13.633Z,50.34
2023-02-27T09:16:18.030Z,50.42
2023-02-27T09:17:22.361Z,50.41
2023-02-27T09:18:26.619Z,50.12
2023-02-27T09:19:30.919Z,50.29
2023-02-27T09:20:35.265Z,50.26
2023-02-27T09:21:39.536Z,50.27
2023-02-27T09:22:43.891Z,50.21
2023-02-27T09:23:48.145Z,50.08
2023-02-27T09:24:52.435Z,50.05
2023-02-27T09:25:56.709Z,49.9
2023-02-27T09:27:00.967Z,49.87
2023-02-27T09:28:05.284Z,49.86
2023-02-27T09:29:09.533Z,49.89
2023-02-27T09:30:13.811Z,49.75
2023-02-27T09:31:18.257Z,49.96
2023-02-27T09:32:23.184Z,49.77
2023-02-27T09:33:30.731Z,49.71
2023-02-27T09:34:34.993Z,49.82
2023-02-27T09:35:39.411Z,49.92
2023-02-27T09:36:43.728Z,49.78
2023-02-27T09:37:48.054Z,49.86
2023-02-27T09:38:52.428Z,49.79
2023-02-27T09:39:56.700Z,49.84
2023-02-27T09:41:01.219Z,49.92
2023-02-27T09:42:05.533Z,49.74
2023-02-27T09:43:10.059Z,49.93
2023-02-27T09:44:14.395Z,49.93
2023-02-27T09:45:18.649Z,49.73
2023-02-27T09:46:23.039Z,49.55
2023-02-27T09:47:27.365Z,49.72
2023-02-27T09:48:31.628Z,49.78
2023-02-27T09:49:35.876Z,49.76
2023-02-27T09:50:40.182Z,49.88
2023-02-27T09:51:44.444Z,49.85
2023-02-27T09:52:48.683Z,49.98
2023-02-27T09:53:52.956Z,50.01
2023-02-27T09:54:57.249Z,49.97
2023-02-27T09:56:01.552Z,49.95
2023-02-27T09:57:05.966Z,49.93
2023-02-27T09:58:10.207Z,50.03
2023-02-27T09:59:14.470Z,50.06
2023-02-27T10:00:18.734Z,49.96
2023-02-27T10:01:23.088Z,50
2023-02-27T10:02:27.461Z,50.1
2023-02-27T10:03:31.965Z,50.09
2023-02-27T10:04:36.331Z,50.01
2023-02-27T10:05:40.579Z,50.05
2023-02-27T10:06:44.878Z,50.12
2023-02-27T10:07:49.148Z,50.19
2023-02-27T10:08:53.541Z,50.23
2023-02-27T10:09:57.812Z,50.21
2023-02-27T10:11:02.181Z,50.21
2023-02-27T10:12:09.296Z,50.26
2023-02-27T10:13:13.819Z,50.36
2023-02-27T10:14:18.106Z,50.44
2023-02-27T10:15:22.385Z,50.43
2023-02-27T10:16:27.845Z,50.43
2023-02-27T10:17:32.297Z,50.5
2023-02-27T10:18:36.866Z,50.47
2023-02-27T10:19:41.158Z,50.51
2023-02-27T10:20:45.485Z,50.5
2023-02-27T10:21:50.245Z,50.44
2023-02-27T10:22:54.516Z,50.44
2023-02-27T10:23:59.812Z,50.41
2023-02-27T10:25:04.107Z,50.39
2023-02-27T10:26:08.377Z,50.5
2023-02-27T10:27:12.649Z,50.51
2023-02-27T10:28:16.964Z,50.53
2023-02-27T10:29:21.330Z,50.5
2023-02-27T10:30:35.916Z,50.49
2023-02-27T10:31:40.259Z,50.52
2023-02-27T10:32:44.545Z,50.56
2023-02-27T10:33:48.823Z,50.66
2023-02-27T10:34:53.340Z,50.59
2023-02-27T10:35:57.889Z,50.71
2023-02-27T10:37:02.267Z,49.43
2023-02-27T10:38:06.589Z,48.87
2023-02-27T10:39:10.841Z,48.45
2023-02-27T10:40:15.403Z,48.29
2023-02-27T10:41:19.712Z,48.08
2023-02-27T10:42:24.020Z,47.53
2023-02-27T10:43:28.278Z,47.27
2023-02-27T10:44:32.556Z,47.1
2023-02-27T10:45:39.756Z,46.71
2023-02-27T10:46:44.314Z,47.02
2023-02-27T10:47:48.727Z,47.25
2023-02-27T10:48:52.994Z,47.4
2023-02-27T10:49:57.375Z,47.92
2023-02-27T10:51:01.645Z,47.89
2023-02-27T10:52:06.967Z,48.04
2023-02-27T10:53:11.225Z,47.62
2023-02-27T10:54:15.498Z,47.57
2023-02-27T10:55:19.758Z,47.48
2023-02-27T10:56:24.085Z,47.41
2023-02-27T10:57:28.460Z,47.29
2023-02-27T10:58:36.162Z,47.18
2023-02-27T10:59:40.445Z,47.21
2023-02-27T11:00:44.735Z,47.1
2023-02-27T11:01:49.195Z,47.2
2023-02-27T11:02:53.579Z,47.23
2023-02-27T11:03:57.842Z,47.2
2023-02-27T11:05:02.102Z,47.31
2023-02-27T11:06:06.363Z,47.14
2023-02-27T11:07:10.607Z,47.18
2023-02-27T11:08:14.950Z,47.41
2023-02-27T11:09:19.198Z,47.35
2023-02-27T11:10:23.524Z,47.46
2023-02-27T11:11:28.928Z,47.62
2023-02-27T11:12:33.372Z,47.54
2023-02-27T11:13:37.701Z,47.66
2023-02-27T11:14:42.034Z,47.62
2023-02-27T11:15:46.440Z,47.86
2023-02-27T11:16:50.743Z,47.86
2023-02-27T11:17:55.201Z,48.15
2023-02-27T11:18:59.665Z,47.95
2023-02-27T11:20:03.910Z,48.07
2023-02-27T11:21:08.227Z,48.08
2023-02-27T11:22:12.747Z,48.05
2023-02-27T11:23:17.053Z,48.17
2023-02-27T11:24:21.495Z,48.17
2023-02-27T11:25:25.855Z,48.19
2023-02-27T11:26:30.125Z,48.27
2023-02-27T11:27:34.382Z,48.29
2023-02-27T11:28:38.752Z,48.29
2023-02-27T11:29:43.276Z,48.41
2023-02-27T11:30:47.741Z,48.35
2023-02-27T11:31:52.228Z,48.68
2023-02-27T11:32:56.527Z,48.65
2023-02-27T11:34:00.855Z,48.84
2023-02-27T11:35:05.148Z,48.86
2023-02-27T11:36:09.720Z,48.79
2023-02-27T11:37:13.988Z,48.9
2023-02-27T11:38:18.303Z,48.94
2023-02-27T11:39:22.579Z,48.99
2023-02-27T11:40:26.861Z,49.1
2023-02-27T11:41:33.798Z,49.11
2023-02-27T11:42:38.080Z,49.13
2023-02-27T11:43:42.353Z,49.12
2023-02-27T11:44:52.966Z,49.12
2023-02-27T11:46:48.923Z,49.29
2023-02-27T11:47:53.256Z,49.4
2023-02-27T11:48:57.543Z,49.37
2023-02-27T11:50:01.875Z,49.26
2023-02-27T11:51:06.157Z,49.27
2023-02-27T11:52:10.729Z,49.33
2023-02-27T11:53:15.008Z,49.37
2023-02-27T11:54:19.330Z,49.39
2023-02-27T11:55:23.613Z,49.17
2023-02-27T11:56:27.900Z,49.1
2023-02-27T11:57:32.234Z,48.95
2023-02-27T11:58:36.495Z,48.79
2023-02-27T11:59:40.855Z,48.58
2023-02-27T12:00:45.235Z,48.54
2023-02-27T12:01:49.486Z,48.41
2023-02-27T12:02:54.078Z,48.29
2023-02-27T12:03:58.547Z,48.19
2023-02-27T12:05:02.868Z,48.12
2023-02-27T12:06:07.114Z,48.18
2023-02-27T12:07:11.409Z,48.2
2023-02-27T12:08:15.902Z,48.25
2023-02-27T12:09:20.210Z,48.26
2023-02-27T12:10:30.548Z,48.29
2023-02-27T12:11:35.226Z,48.33
2023-02-27T12:12:39.589Z,48.37
2023-02-27T12:13:43.883Z,48.55
2023-02-27T12:14:48.307Z,48.61
2023-02-27T12:15:52.735Z,48.65
2023-02-27T12:16:57.057Z,48.75
2023-02-27T12:18:01.336Z,48.75
2023-02-27T12:19:05.594Z,48.8
2023-02-27T12:20:09.942Z,48.89
2023-02-27T12:21:14.187Z,48.96
2023-02-27T12:22:18.453Z,49.07
2023-02-27T12:23:22.710Z,49.27
2023-02-27T12:24:26.993Z,49.28
2023-02-27T12:25:31.879Z,49.35
2023-02-27T12:26:36.181Z,49.45
2023-02-27T12:27:41.705Z,49.59
2023-02-27T12:28:47.135Z,49.56
2023-02-27T12:29:51.395Z,49.66
2023-02-27T12:30:55.692Z,49.76
2023-02-27T12:32:00.436Z,49.82
2023-02-27T12:33:04.788Z,49.77
2023-02-27T12:34:09.028Z,49.91
2023-02-27T12:35:13.362Z,49.99
2023-02-27T12:36:17.641Z,49.85
2023-02-27T12:37:21.910Z,49.9
2023-02-27T12:38:26.175Z,50.03
2023-02-27T12:39:30.460Z,49.96
2023-02-27T12:40:34.803Z,49.95
2023-02-27T12:41:39.100Z,49.97
2023-02-27T12:42:43.352Z,49.99
2023-02-27T12:43:47.610Z,50
2023-02-27T12:44:51.892Z,50.05
2023-02-27T12:45:56.697Z,50.13
2023-02-27T12:47:01.166Z,50.08
2023-02-27T12:48:05.479Z,50.06
2023-02-27T12:49:12.668Z,50.09
2023-02-27T12:50:16.956Z,50.19
2023-02-27T12:51:21.192Z,50.08
2023-02-27T12:52:25.707Z,50.04
2023-02-27T12:53:29.969Z,50.03
2023-02-27T12:54:34.274Z,50.09
2023-02-27T12:55:38.542Z,50.12
2023-02-27T12:56:45.090Z,50.09
2023-02-27T12:57:49.392Z,50.17
2023-02-27T12:58:53.639Z,49.82
2023-02-27T12:59:57.922Z,50.01
2023-02-27T13:01:02.400Z,50.07
2023-02-27T13:02:06.741Z,49.96
2023-02-27T13:03:11.054Z,50.01
2023-02-27T13:04:15.483Z,50.03
2023-02-27T13:05:19.779Z,50.06
2023-02-27T13:06:24.065Z,50.12
2023-02-27T13:07:28.375Z,50.31
2023-02-27T13:08:32.671Z,50.27
2023-02-27T13:09:36.934Z,50.06
2023-02-27T13:10:41.201Z,50.31
2023-02-27T13:11:45.493Z,50.25
2023-02-27T13:12:49.745Z,50.34
2023-02-27T13:13:54.031Z,50.24
2023-02-27T13:14:58.293Z,50.28
2023-02-27T13:16:02.575Z,50.46
2023-02-27T13:17:06.901Z,50.62
2023-02-27T13:18:11.165Z,50.48
2023-02-27T13:19:15.562Z,50.48
2023-02-27T13:20:22.204Z,50.59
2023-02-27T13:21:27.129Z,50.66
2023-02-27T13:22:31.536Z,50.61
2023-02-27T13:23:35.820Z,50.79
2023-02-27T13:24:40.089Z,50.79
2023-02-27T13:25:44.373Z,50.66
2023-02-27T13:26:49.811Z,50.85
2023-02-27T13:27:54.095Z,50.88
2023-02-27T13:28:58.341Z,50.99
2023-02-27T13:30:02.628Z,51
2023-02-27T13:31:06.892Z,51.14
2023-02-27T13:32:11.525Z,51.16
2023-02-27T13:33:16.041Z,51.27
2023-02-27T13:34:20.311Z,51.13
2023-02-27T13:35:24.608Z,51.45
2023-02-27T13:36:28.897Z,51.38
2023-02-27T13:37:33.264Z,51.46
2023-02-27T13:38:40.216Z,51.52
2023-02-27T13:39:44.485Z,51.61
2023-02-27T13:40:48.774Z,51.62
2023-02-27T13:41:53.052Z,51.52
2023-02-27T13:42:57.331Z,51.7
2023-02-27T13:44:01.748Z,51.71
2023-02-27T13:45:06.076Z,51.77
2023-02-27T13:46:10.577Z,51.69
2023-02-27T13:47:14.956Z,51.73
2023-02-27T13:48:19.231Z,51.73
2023-02-27T13:49:31.322Z,51.83
2023-02-27T13:50:38.031Z,51.77
2023-02-27T13:51:42.314Z,51.83
2023-02-27T13:52:46.642Z,51.82
2023-02-27T13:53:50.947Z,51.88
2023-02-27T13:55:12.261Z,51.91